createdAt,value
2019-03-03T00:01:23.064Z,13.37
2019-03-03T00:03:53.607Z,9.07
2019-03-03T00:06:22.984Z,11.00
2019-03-03T00:08:52.308Z,11.07
2019-03-03T00:11:21.783Z,10.17
2019-03-03T00:13:51.222Z,10.90
2019-03-03T00:16:20.649Z,10.77
2019-03-03T00:18:49.955Z,11.83
2019-03-03T00:21:21.085Z,11.93
2019-03-03T00:23:50.496Z,10.30
2019-03-03T00:26:20.016Z,10.70
2019-03-03T00:28:49.367Z,10.60
2019-03-03T00:31:21.748Z,17.10
2019-03-03T00:33:51.350Z,11.03
2019-03-03T00:36:21.018Z,10.90
2019-03-03T00:38:51.999Z,11.90
2019-03-03T00:41:23.211Z,12.90
2019-03-03T00:44:10.433Z,14.13
2019-03-03T00:46:53.671Z,10.67
2019-03-03T00:49:24.643Z,15.33
2019-03-03T00:51:55.604Z,13.40
2019-03-03T00:54:29.603Z,16.83
2019-03-03T00:57:00.574Z,14.63
2019-03-03T00:59:47.135Z,12.80
2019-03-03T01:02:20.818Z,14.37
2019-03-03T01:04:54.933Z,13.07
2019-03-03T01:07:42.296Z,16.57
2019-03-03T01:10:13.421Z,13.73
2019-03-03T01:12:44.451Z,14.53
2019-03-03T01:15:19.786Z,15.17
2019-03-03T01:17:56.515Z,14.33
2019-03-03T01:20:36.564Z,14.60
2019-03-03T01:23:10.626Z,13.97
2019-03-03T01:25:40.038Z,13.33
2019-03-03T01:28:09.542Z,12.63
2019-03-03T01:30:39.132Z,14.57
2019-03-03T01:33:08.460Z,16.43
2019-03-03T01:35:37.854Z,13.87
2019-03-03T01:38:07.411Z,16.03
2019-03-03T01:40:39.561Z,13.97
2019-03-03T01:43:09.013Z,18.83
2019-03-03T01:45:38.664Z,12.73
2019-03-03T01:48:08.231Z,15.73
2019-03-03T01:50:37.638Z,15.53
2019-03-03T01:53:07.117Z,14.17
2019-03-03T01:55:36.590Z,18.30
2019-03-03T01:58:05.966Z,17.20
2019-03-03T02:00:35.413Z,12.40
2019-03-03T02:03:05.696Z,17.50
2019-03-03T02:05:35.152Z,14.07
2019-03-03T02:08:04.825Z,12.30
2019-03-03T02:10:34.729Z,12.53
2019-03-03T02:13:05.446Z,17.43
2019-03-03T02:15:35.134Z,16.67
2019-03-03T02:18:04.680Z,16.60
2019-03-03T02:20:34.286Z,16.17
2019-03-03T02:23:03.913Z,13.37
2019-03-03T02:25:33.465Z,16.03
2019-03-03T02:28:02.894Z,15.43
2019-03-03T02:30:32.006Z,14.40
2019-03-03T02:33:01.364Z,13.93
2019-03-03T02:35:30.731Z,13.43
2019-03-03T02:38:00.079Z,14.00
2019-03-03T02:40:29.463Z,13.17
2019-03-03T02:42:58.829Z,16.13
2019-03-03T02:45:28.184Z,15.23
2019-03-03T02:47:57.575Z,14.57
2019-03-03T02:50:27.059Z,12.20
2019-03-03T02:52:56.732Z,14.50
2019-03-03T02:55:26.408Z,15.00
2019-03-03T02:57:55.712Z,16.00
2019-03-03T03:00:25.259Z,15.60
2019-03-03T03:02:56.285Z,16.00
2019-03-03T03:05:31.211Z,14.53
2019-03-03T03:08:08.529Z,15.23
2019-03-03T03:10:42.444Z,15.77
2019-03-03T03:13:15.957Z,17.03
2019-03-03T03:15:47.081Z,16.50
2019-03-03T03:18:27.191Z,20.07
2019-03-03T03:21:07.172Z,17.83
2019-03-03T03:23:38.298Z,19.33
2019-03-03T03:26:15.349Z,17.60
2019-03-03T03:28:46.638Z,20.90
2019-03-03T03:31:17.714Z,15.67
2019-03-03T03:33:51.674Z,18.97
2019-03-03T03:36:41.046Z,17.73
2019-03-03T03:39:14.993Z,20.13
2019-03-03T03:41:46.063Z,16.53
2019-03-03T03:44:17.181Z,16.70
2019-03-03T03:46:54.091Z,17.27
2019-03-03T03:49:27.814Z,17.57
2019-03-03T03:51:58.789Z,16.50
2019-03-03T03:54:41.612Z,14.37
2019-03-03T03:57:12.585Z,19.40
2019-03-03T03:59:43.565Z,21.93
2019-03-03T04:02:14.986Z,18.77
2019-03-03T04:05:02.404Z,18.77
2019-03-03T04:07:36.792Z,15.93
2019-03-03T04:10:09.511Z,17.10
2019-03-03T04:12:52.858Z,17.27
2019-03-03T04:15:38.924Z,19.47
2019-03-03T04:18:12.506Z,20.23
2019-03-03T04:20:52.581Z,16.30
2019-03-03T04:23:40.119Z,16.17
2019-03-03T04:26:13.841Z,17.37
2019-03-03T04:28:48.136Z,17.67
2019-03-03T04:31:24.898Z,17.80
2019-03-03T04:33:58.405Z,19.70
2019-03-03T04:36:33.253Z,17.20
2019-03-03T04:39:04.284Z,18.93
2019-03-03T04:41:39.121Z,18.50
2019-03-03T04:44:10.177Z,18.47
2019-03-03T04:46:41.252Z,19.03
2019-03-03T04:49:18.285Z,23.30
2019-03-03T04:52:07.587Z,16.47
2019-03-03T04:54:41.568Z,19.20
2019-03-03T04:57:15.731Z,19.20
2019-03-03T04:59:49.689Z,25.60
2019-03-03T05:02:30.082Z,20.57
2019-03-03T05:05:01.077Z,19.53
2019-03-03T05:07:36.362Z,20.93
2019-03-03T05:10:27.025Z,17.93
2019-03-03T05:13:00.881Z,19.60
2019-03-03T05:15:31.919Z,19.33
2019-03-03T05:18:02.959Z,17.43
2019-03-03T05:20:46.118Z,17.93
2019-03-03T05:23:15.453Z,20.47
2019-03-03T05:25:44.771Z,19.50
2019-03-03T05:28:14.219Z,18.23
2019-03-03T05:30:43.745Z,18.67
2019-03-03T05:33:13.060Z,19.87
2019-03-03T05:35:43.464Z,17.53
2019-03-03T05:38:13.042Z,20.67
2019-03-03T05:40:42.508Z,20.10
2019-03-03T05:43:11.981Z,25.47
2019-03-03T05:45:41.340Z,19.40
2019-03-03T05:48:11.107Z,20.13
2019-03-03T05:50:40.424Z,23.53
2019-03-03T05:53:10.006Z,24.93
2019-03-03T05:55:39.309Z,23.00
2019-03-03T05:58:08.703Z,21.83
2019-03-03T06:00:38.149Z,20.23
2019-03-03T06:03:08.114Z,20.27
2019-03-03T06:05:38.737Z,18.50
2019-03-03T06:08:08.081Z,22.03
2019-03-03T06:10:37.468Z,24.37
2019-03-03T06:13:06.861Z,21.60
2019-03-03T06:15:36.219Z,21.13
2019-03-03T06:18:05.660Z,20.93
2019-03-03T06:20:35.976Z,20.83
2019-03-03T06:23:05.445Z,18.43
2019-03-03T06:25:34.846Z,18.97
2019-03-03T06:28:04.312Z,19.70
2019-03-03T06:30:33.973Z,19.80
2019-03-03T06:33:03.378Z,21.03
2019-03-03T06:35:32.864Z,19.03
2019-03-03T06:38:02.314Z,14.63
2019-03-03T06:40:31.728Z,17.77
2019-03-03T06:43:01.137Z,18.27
2019-03-03T06:45:30.550Z,15.63
2019-03-03T06:47:59.879Z,18.00
2019-03-03T06:50:29.378Z,16.77
2019-03-03T06:52:58.836Z,17.10
2019-03-03T06:55:27.970Z,19.93
2019-03-03T06:57:58.489Z,17.03
2019-03-03T07:00:27.391Z,16.83
2019-03-03T07:02:56.302Z,18.13
2019-03-03T07:05:26.126Z,16.77
2019-03-03T07:07:55.127Z,16.93
2019-03-03T07:10:24.438Z,17.97
2019-03-03T07:12:53.948Z,18.03
2019-03-03T07:15:23.269Z,18.53
2019-03-03T07:17:52.667Z,19.50
2019-03-03T07:20:22.037Z,17.23
2019-03-03T07:22:51.423Z,17.37
2019-03-03T07:25:21.159Z,21.00
2019-03-03T07:27:50.239Z,16.67
2019-03-03T07:30:19.571Z,17.33
2019-03-03T07:33:05.964Z,17.03
2019-03-03T07:35:35.321Z,15.73
2019-03-03T07:38:04.778Z,14.40
2019-03-03T07:40:34.022Z,17.80
2019-03-03T07:43:03.377Z,17.70
2019-03-03T07:45:32.291Z,15.90
2019-03-03T07:48:01.205Z,14.70
2019-03-03T07:50:30.153Z,20.53
2019-03-03T07:52:59.244Z,18.93
2019-03-03T07:55:28.552Z,14.53
2019-03-03T07:57:58.409Z,13.00
2019-03-03T08:00:27.785Z,18.40
2019-03-03T08:02:57.116Z,17.20
2019-03-03T08:05:26.160Z,18.63
2019-03-03T08:07:55.261Z,16.10
2019-03-03T08:10:24.324Z,19.30
2019-03-03T08:12:53.308Z,18.30
2019-03-03T08:15:22.296Z,17.77
2019-03-03T08:17:51.658Z,16.30
2019-03-03T08:20:21.228Z,14.70
2019-03-03T08:22:50.725Z,16.93
2019-03-03T08:25:20.084Z,14.00
2019-03-03T08:27:49.501Z,15.43
2019-03-03T08:30:19.441Z,14.33
2019-03-03T08:32:48.608Z,18.53
2019-03-03T08:35:20.210Z,16.87
2019-03-03T08:37:49.605Z,15.70
2019-03-03T08:40:19.105Z,15.07
2019-03-03T08:42:52.928Z,15.57
2019-03-03T08:45:23.895Z,15.93
2019-03-03T08:48:10.408Z,12.80
2019-03-03T08:50:47.045Z,14.53
2019-03-03T08:53:21.012Z,15.83
2019-03-03T08:55:52.179Z,13.10
2019-03-03T08:58:28.998Z,12.73
2019-03-03T09:01:05.868Z,17.17
2019-03-03T09:03:39.413Z,13.83
2019-03-03T09:06:13.308Z,15.73
2019-03-03T09:08:44.348Z,14.40
2019-03-03T09:11:21.355Z,14.00
2019-03-03T09:14:01.349Z,13.90
2019-03-03T09:16:34.755Z,13.20
2019-03-03T09:19:08.316Z,12.93
2019-03-03T09:21:45.148Z,18.00
2019-03-03T09:24:32.238Z,15.83
2019-03-03T09:27:08.806Z,13.40
2019-03-03T09:29:42.826Z,19.53
2019-03-03T09:32:22.639Z,12.97
2019-03-03T09:34:57.984Z,12.30
2019-03-03T09:37:32.069Z,14.97
2019-03-03T09:40:09.866Z,12.47
2019-03-03T09:42:42.039Z,12.77
2019-03-03T09:45:29.793Z,11.83
2019-03-03T09:48:03.388Z,13.60
2019-03-03T09:50:46.880Z,16.70
2019-03-03T09:53:17.541Z,11.73
2019-03-03T09:56:05.264Z,14.57
2019-03-03T09:58:39.101Z,11.33
2019-03-03T10:01:15.956Z,10.93
2019-03-03T10:03:52.748Z,12.20
2019-03-03T10:06:23.778Z,12.30
2019-03-03T10:09:03.219Z,11.37
2019-03-03T10:11:35.392Z,14.00
2019-03-03T10:14:09.631Z,12.30
2019-03-03T10:16:40.577Z,12.13
2019-03-03T10:19:11.565Z,12.20
2019-03-03T10:21:51.516Z,11.17
2019-03-03T10:24:28.558Z,15.30
2019-03-03T10:26:59.720Z,14.87
2019-03-03T10:29:36.991Z,11.53
2019-03-03T10:32:24.321Z,11.83
2019-03-03T10:35:01.610Z,11.03
2019-03-03T10:37:37.000Z,12.47
2019-03-03T10:40:09.978Z,11.00
2019-03-03T10:42:40.821Z,11.67
2019-03-03T10:45:21.071Z,13.93
2019-03-03T10:47:57.636Z,10.90
2019-03-03T10:50:43.780Z,9.70
2019-03-03T10:53:30.865Z,8.17
2019-03-03T10:56:10.513Z,8.60
2019-03-03T10:58:44.241Z,8.87
2019-03-03T11:01:17.925Z,10.53
2019-03-03T11:03:55.964Z,12.63
2019-03-03T11:06:29.646Z,7.90
2019-03-03T11:09:02.972Z,11.10
2019-03-03T11:11:35.167Z,11.70
2019-03-03T11:14:23.233Z,11.67
2019-03-03T11:17:06.122Z,9.53
2019-03-03T11:19:36.821Z,10.53
2019-03-03T11:22:07.600Z,9.87
2019-03-03T11:24:54.792Z,9.93
2019-03-03T11:27:28.320Z,10.70
2019-03-03T11:29:58.927Z,13.50
2019-03-03T11:32:32.560Z,9.70
2019-03-03T11:35:03.194Z,11.17
2019-03-03T11:37:37.344Z,8.87
2019-03-03T11:40:09.603Z,8.50
2019-03-03T11:42:49.352Z,9.57
2019-03-03T11:45:31.988Z,10.27
2019-03-03T11:48:15.077Z,10.60
2019-03-03T11:51:02.305Z,10.73
2019-03-03T11:53:39.002Z,16.73
2019-03-03T11:56:12.678Z,9.93
2019-03-03T11:58:46.284Z,10.10
2019-03-03T12:01:16.966Z,8.97
2019-03-03T12:03:47.588Z,10.83
2019-03-03T12:06:27.343Z,9.70
2019-03-03T12:09:02.349Z,9.63
2019-03-03T12:11:34.536Z,9.20
2019-03-03T12:14:06.633Z,9.83
2019-03-03T12:16:39.889Z,10.07
2019-03-03T12:19:22.982Z,6.63
2019-03-03T12:21:59.756Z,10.97
2019-03-03T12:24:39.309Z,8.07
2019-03-03T12:27:12.887Z,12.77
2019-03-03T12:29:43.528Z,11.00
2019-03-03T12:32:17.608Z,9.47
2019-03-03T12:34:50.942Z,9.50
2019-03-03T12:37:24.423Z,8.43
2019-03-03T12:39:57.851Z,10.23
2019-03-03T12:42:28.483Z,10.57
2019-03-03T12:45:15.723Z,9.50
2019-03-03T12:48:05.084Z,8.70
2019-03-03T12:50:52.412Z,7.83
2019-03-03T12:53:23.199Z,11.33
2019-03-03T12:56:12.024Z,8.23
2019-03-03T12:58:45.567Z,5.77
2019-03-03T13:01:28.559Z,9.93
2019-03-03T13:04:17.587Z,6.87
2019-03-03T13:07:04.623Z,6.00
2019-03-03T13:09:41.575Z,6.00
2019-03-03T13:12:18.634Z,5.60
2019-03-03T13:14:52.053Z,5.63
2019-03-03T13:17:31.361Z,10.37
2019-03-03T13:20:02.100Z,7.10
2019-03-03T13:22:38.540Z,7.83
2019-03-03T13:25:09.942Z,7.10
2019-03-03T13:27:47.377Z,6.67
2019-03-03T13:30:23.916Z,5.40
2019-03-03T13:32:54.658Z,5.70
2019-03-03T13:35:28.166Z,6.37
2019-03-03T13:38:02.748Z,13.10
2019-03-03T13:40:33.371Z,7.63
2019-03-03T13:43:02.342Z,6.67
2019-03-03T13:45:31.647Z,6.07
2019-03-03T13:48:00.600Z,5.27
2019-03-03T13:50:30.732Z,3.80
2019-03-03T13:52:59.818Z,6.97
2019-03-03T13:55:28.714Z,7.47
2019-03-03T13:57:57.922Z,3.17
2019-03-03T14:00:26.864Z,5.40
2019-03-03T14:02:55.890Z,6.07
2019-03-03T14:05:25.084Z,5.57
2019-03-03T14:07:54.079Z,8.40
2019-03-03T14:10:23.096Z,5.20
2019-03-03T14:12:52.051Z,6.13
2019-03-03T14:15:21.320Z,10.23
2019-03-03T14:17:50.653Z,6.40
2019-03-03T14:20:21.694Z,6.03
2019-03-03T14:22:51.106Z,5.07
2019-03-03T14:25:20.539Z,5.57
2019-03-03T14:27:49.585Z,3.90
2019-03-03T14:30:22.783Z,5.10
2019-03-03T14:32:51.729Z,6.43
2019-03-03T14:35:20.692Z,5.17
2019-03-03T14:37:49.597Z,5.00
2019-03-03T14:40:19.749Z,5.63
2019-03-03T14:42:48.880Z,6.13
2019-03-03T14:45:18.391Z,5.37
2019-03-03T14:47:47.426Z,3.73
2019-03-03T14:50:20.339Z,5.43
2019-03-03T14:52:51.664Z,3.17
2019-03-03T14:55:20.555Z,2.27
2019-03-03T14:57:49.547Z,3.30
2019-03-03T15:00:24.673Z,5.27
2019-03-03T15:02:53.921Z,4.40
2019-03-03T15:05:23.890Z,3.97
2019-03-03T15:07:53.004Z,5.13
2019-03-03T15:10:22.320Z,3.17
2019-03-03T15:12:51.206Z,3.90
2019-03-03T15:15:21.252Z,4.13
2019-03-03T15:17:50.501Z,3.47
2019-03-03T15:20:19.418Z,3.40
2019-03-03T15:22:48.465Z,5.60
2019-03-03T15:25:17.672Z,2.63
2019-03-03T15:27:47.575Z,3.90
2019-03-03T15:30:18.518Z,4.70
2019-03-03T15:32:47.694Z,7.57
2019-03-03T15:35:16.773Z,8.50
2019-03-03T15:37:46.035Z,8.00
2019-03-03T15:40:16.463Z,6.57
2019-03-03T15:42:45.804Z,4.03
2019-03-03T15:45:19.347Z,8.67
2019-03-03T15:47:49.503Z,8.97
2019-03-03T15:50:20.069Z,6.57
2019-03-03T15:52:49.334Z,7.57
2019-03-03T15:55:22.749Z,8.53
2019-03-03T15:57:51.739Z,7.50
2019-03-03T16:00:24.841Z,6.87
2019-03-03T16:02:53.757Z,7.20
2019-03-03T16:05:22.720Z,11.67
2019-03-03T16:07:51.682Z,13.93
2019-03-03T16:10:22.157Z,9.97
2019-03-03T16:12:51.054Z,9.73
2019-03-03T16:15:20.430Z,11.30
2019-03-03T16:17:49.463Z,9.63
2019-03-03T16:20:21.946Z,12.07
2019-03-03T16:22:52.524Z,8.40
2019-03-03T16:25:22.364Z,12.97
2019-03-03T16:27:51.900Z,8.50
2019-03-03T16:30:23.345Z,13.00
2019-03-03T16:32:52.927Z,7.33
2019-03-03T16:35:22.324Z,8.23
2019-03-03T16:37:53.248Z,8.57
2019-03-03T16:40:23.909Z,11.33
2019-03-03T16:42:53.398Z,7.83
2019-03-03T16:45:23.757Z,8.40
2019-03-03T16:47:53.158Z,10.33
2019-03-03T16:50:23.960Z,12.70
2019-03-03T16:52:53.625Z,12.27
2019-03-03T16:55:23.112Z,9.60
2019-03-03T16:57:53.149Z,6.40
2019-03-03T17:00:25.255Z,10.30
2019-03-03T17:02:54.842Z,7.53
2019-03-03T17:05:29.093Z,12.73
2019-03-03T17:07:58.701Z,9.47
2019-03-03T17:10:28.379Z,7.70
2019-03-03T17:12:57.769Z,13.13
2019-03-03T17:15:28.822Z,5.60
2019-03-03T17:17:58.356Z,10.47
2019-03-03T17:20:28.759Z,8.87
2019-03-03T17:22:58.458Z,11.10
2019-03-03T17:25:29.032Z,7.63
2019-03-03T17:28:00.040Z,7.83
2019-03-03T17:30:29.505Z,9.27
2019-03-03T17:32:58.851Z,9.77
2019-03-03T17:35:28.246Z,7.47
2019-03-03T17:37:57.785Z,7.80
2019-03-03T17:40:27.949Z,8.87
2019-03-03T17:42:57.525Z,7.83
2019-03-03T17:45:27.180Z,6.30
2019-03-03T17:47:56.645Z,10.70
2019-03-03T17:50:47.312Z,9.23
2019-03-03T17:53:16.669Z,4.87
2019-03-03T17:55:49.220Z,12.40
2019-03-03T17:58:18.803Z,7.37
2019-03-03T18:00:49.000Z,8.30
2019-03-03T18:03:18.461Z,7.30
2019-03-03T18:05:48.140Z,8.33
2019-03-03T18:08:17.556Z,6.50
2019-03-03T18:10:48.856Z,5.90
2019-03-03T18:13:18.388Z,8.87
2019-03-03T18:15:47.847Z,7.10
2019-03-03T18:18:18.425Z,9.60
2019-03-03T18:20:47.954Z,4.70
2019-03-03T18:23:17.681Z,8.40
2019-03-03T18:25:47.097Z,7.17
2019-03-03T18:28:16.469Z,6.97
2019-03-03T18:30:45.779Z,10.40
2019-03-03T18:33:15.333Z,10.80
2019-03-03T18:35:44.657Z,9.73
2019-03-03T18:38:14.211Z,6.60
2019-03-03T18:40:44.110Z,10.63
2019-03-03T18:43:13.556Z,8.10
2019-03-03T18:45:43.036Z,11.03
2019-03-03T18:48:12.537Z,9.27
2019-03-03T18:50:42.115Z,11.33
2019-03-03T18:53:11.687Z,10.20
2019-03-03T18:55:41.079Z,8.57
2019-03-03T18:58:10.734Z,13.57
2019-03-03T19:00:40.237Z,7.37
2019-03-03T19:03:09.752Z,11.57
2019-03-03T19:05:39.356Z,7.67
2019-03-03T19:08:08.528Z,8.83
2019-03-03T19:10:38.771Z,8.57
2019-03-03T19:13:08.855Z,8.70
2019-03-03T19:15:37.834Z,6.97
2019-03-03T19:18:06.808Z,10.43
2019-03-03T19:20:36.084Z,5.73
2019-03-03T19:23:05.061Z,8.07
2019-03-03T19:25:33.951Z,9.63
2019-03-03T19:28:02.958Z,10.30
2019-03-03T19:30:32.177Z,7.23
2019-03-03T19:33:05.868Z,7.60
2019-03-03T19:35:34.870Z,8.17
2019-03-03T19:38:04.137Z,12.07
2019-03-03T19:40:33.581Z,8.13
2019-03-03T19:43:02.463Z,9.73
2019-03-03T19:45:38.944Z,10.93
2019-03-03T19:48:07.909Z,11.60
2019-03-03T19:50:36.978Z,4.90
2019-03-03T19:53:07.579Z,7.83
2019-03-03T19:55:36.943Z,5.87
2019-03-03T19:58:06.550Z,5.40
2019-03-03T20:00:39.144Z,4.87
2019-03-03T20:03:09.293Z,9.83
2019-03-03T20:05:40.435Z,6.80
2019-03-03T20:08:09.940Z,4.53
2019-03-03T20:10:39.435Z,6.03
2019-03-03T20:13:09.064Z,5.87
2019-03-03T20:15:38.753Z,5.37
2019-03-03T20:18:09.990Z,3.83
2019-03-03T20:20:39.755Z,3.43
2019-03-03T20:23:09.270Z,4.03
2019-03-03T20:25:38.871Z,5.60
2019-03-03T20:28:08.421Z,4.07
2019-03-03T20:30:38.517Z,3.27
2019-03-03T20:33:08.390Z,3.70
2019-03-03T20:35:38.010Z,3.43
2019-03-03T20:38:07.718Z,4.40
2019-03-03T20:40:39.074Z,2.60
2019-03-03T20:43:08.289Z,7.07
2019-03-03T20:45:37.705Z,3.17
2019-03-03T20:48:07.361Z,2.50
2019-03-03T20:50:36.680Z,2.30
2019-03-03T20:53:06.186Z,4.30
2019-03-03T20:55:35.701Z,2.93
2019-03-03T20:58:05.225Z,3.30
2019-03-03T21:00:35.494Z,3.50
2019-03-03T21:03:05.026Z,3.97
2019-03-03T21:05:34.324Z,3.67
2019-03-03T21:08:03.717Z,4.00
2019-03-03T21:10:33.882Z,3.93
2019-03-03T21:13:02.874Z,2.93
2019-03-03T21:15:31.928Z,2.43
2019-03-03T21:18:00.835Z,2.30
2019-03-03T21:20:29.750Z,5.13
2019-03-03T21:22:58.720Z,5.03
2019-03-03T21:25:27.680Z,2.83
2019-03-03T21:27:56.578Z,3.07
2019-03-03T21:30:26.195Z,3.97
2019-03-03T21:32:55.151Z,2.90
2019-03-03T21:35:24.145Z,3.07
2019-03-03T21:37:53.162Z,5.53
2019-03-03T21:40:22.918Z,2.60
2019-03-03T21:42:51.944Z,5.83
2019-03-03T21:45:21.613Z,4.27
2019-03-03T21:47:50.644Z,4.33
2019-03-03T21:50:40.082Z,3.30
2019-03-03T21:53:09.047Z,2.57
2019-03-03T21:55:38.001Z,3.47
2019-03-03T21:58:07.136Z,3.13
2019-03-03T22:00:37.290Z,5.40
2019-03-03T22:03:06.687Z,4.23
2019-03-03T22:05:35.786Z,3.10
2019-03-03T22:14:58.296Z,3.70
2019-03-03T22:17:27.237Z,3.00
2019-03-03T22:19:56.129Z,2.33
2019-03-03T22:22:25.023Z,3.17
2019-03-03T22:24:53.935Z,2.53
2019-03-03T22:27:22.827Z,4.00
2019-03-03T22:29:51.711Z,2.57
2019-03-03T22:32:20.767Z,2.60
2019-03-03T22:34:49.666Z,5.10
2019-03-03T22:37:18.558Z,2.60
2019-03-03T22:39:47.479Z,2.13
2019-03-03T22:42:16.371Z,4.27
2019-03-03T22:44:45.264Z,2.13
2019-03-03T22:47:14.201Z,2.80
2019-03-03T22:49:43.091Z,2.83
2019-03-03T22:52:11.973Z,2.90
2019-03-03T22:54:41.964Z,2.10
2019-03-03T22:57:10.924Z,3.00
2019-03-03T22:59:39.812Z,2.17
2019-03-03T23:02:08.719Z,3.43
2019-03-03T23:04:42.092Z,3.13
2019-03-03T23:07:12.591Z,2.03
2019-03-03T23:09:55.291Z,4.13
2019-03-03T23:12:32.046Z,2.10
2019-03-03T23:15:08.782Z,4.27
2019-03-03T23:17:39.210Z,6.47
2019-03-03T23:20:18.806Z,2.63
2019-03-03T23:22:55.371Z,3.17
2019-03-03T23:25:42.542Z,3.27
2019-03-03T23:28:11.544Z,2.50
2019-03-03T23:30:40.436Z,3.33
2019-03-03T23:33:09.476Z,4.37
2019-03-03T23:35:38.385Z,4.90
2019-03-03T23:38:07.269Z,2.67
2019-03-03T23:40:36.198Z,4.67
2019-03-03T23:43:05.334Z,2.60
2019-03-03T23:45:34.223Z,4.43
2019-03-03T23:48:03.386Z,4.57
2019-03-03T23:50:32.271Z,5.30
2019-03-03T23:53:01.151Z,2.30
2019-03-03T23:55:30.142Z,5.43
2019-03-03T23:57:59.037Z,2.60
